createdAt,value
2023-04-16T00:02:00.533Z,4.63
2023-04-16T00:04:27.894Z,4.59
2023-04-16T00:06:54.992Z,4.56
2023-04-16T00:09:21.892Z,4.52
2023-04-16T00:11:48.752Z,4.50
2023-04-16T00:14:15.673Z,4.49
2023-04-16T00:16:42.875Z,4.48
2023-04-16T00:19:10.129Z,4.47
2023-04-16T00:21:37.378Z,4.44
2023-04-16T00:24:04.418Z,4.38
2023-04-16T00:26:31.377Z,4.35
2023-04-16T00:28:58.945Z,4.31
2023-04-16T00:31:29.974Z,4.27
2023-04-16T00:33:57.526Z,4.23
2023-04-16T00:36:25.189Z,4.21
2023-04-16T00:38:52.685Z,4.18
2023-04-16T00:41:19.945Z,4.18
2023-04-16T00:43:47.395Z,4.17
2023-04-16T00:46:15.482Z,4.11
2023-04-16T00:48:43.248Z,4.05
2023-04-16T00:51:11.115Z,4.00
2023-04-16T00:53:38.296Z,3.96
2023-04-16T00:56:06.654Z,3.94
2023-04-16T00:58:34.585Z,3.92
2023-04-16T01:01:01.851Z,3.89
2023-04-16T01:03:47.435Z,3.86
2023-04-16T01:06:16.148Z,3.87
2023-04-16T01:08:43.323Z,3.89
2023-04-16T01:11:11.689Z,3.89
2023-04-16T01:13:38.973Z,3.89
2023-04-16T01:16:09.421Z,3.89
2023-04-16T01:18:37.179Z,3.89
2023-04-16T01:21:04.887Z,3.89
2023-04-16T01:23:32.272Z,3.86
2023-04-16T01:25:59.229Z,3.86
2023-04-16T01:28:26.339Z,3.86
2023-04-16T01:30:53.332Z,3.85
2023-04-16T01:33:28.171Z,3.82
2023-04-16T01:35:55.134Z,3.73
2023-04-16T01:38:22.023Z,3.64
2023-04-16T01:40:49.102Z,3.55
2023-04-16T01:43:15.905Z,3.52
2023-04-16T01:45:42.840Z,3.51
2023-04-16T01:48:11.916Z,3.50
2023-04-16T01:50:38.826Z,3.51
2023-04-16T01:53:06.041Z,3.51
2023-04-16T01:55:33.885Z,3.50
2023-04-16T01:58:00.903Z,3.45
2023-04-16T02:00:30.073Z,3.44
2023-04-16T02:02:57.199Z,3.44
2023-04-16T02:05:26.191Z,3.44
2023-04-16T02:07:53.051Z,3.45
2023-04-16T02:10:20.306Z,3.45
2023-04-16T02:12:47.624Z,3.47
2023-04-16T02:15:15.949Z,3.49
2023-04-16T02:17:42.855Z,3.50
2023-04-16T02:20:10.878Z,3.49
2023-04-16T02:22:47.105Z,3.48
2023-04-16T02:25:15.430Z,3.48
2023-04-16T02:27:42.871Z,3.47
2023-04-16T02:30:40.213Z,3.47
2023-04-16T02:33:10.030Z,3.47
2023-04-16T02:35:39.335Z,3.47
2023-04-16T02:38:07.184Z,3.45
2023-04-16T02:40:35.088Z,3.39
2023-04-16T02:43:02.938Z,3.33
2023-04-16T02:45:31.154Z,3.31
2023-04-16T02:47:58.364Z,3.29
2023-04-16T02:50:25.367Z,3.29
2023-04-16T02:52:52.276Z,3.28
2023-04-16T02:55:19.165Z,3.27
2023-04-16T02:57:46.122Z,3.25
2023-04-16T03:00:13.108Z,3.21
2023-04-16T03:02:40.192Z,3.20
2023-04-16T03:05:07.389Z,3.19
2023-04-16T03:07:34.813Z,3.19
2023-04-16T03:10:01.936Z,3.17
2023-04-16T03:12:29.020Z,3.14
2023-04-16T03:14:56.306Z,3.12
2023-04-16T03:17:23.449Z,3.09
2023-04-16T03:19:50.447Z,3.08
2023-04-16T03:22:19.422Z,3.07
2023-04-16T03:24:46.534Z,3.05
2023-04-16T03:27:13.589Z,3.02
2023-04-16T03:29:41.005Z,3.00
2023-04-16T03:32:08.123Z,2.97
2023-04-16T03:34:36.582Z,2.97
2023-04-16T03:37:05.677Z,2.96
2023-04-16T03:39:33.989Z,2.96
2023-04-16T03:42:01.854Z,2.95
2023-04-16T03:44:29.302Z,2.94
2023-04-16T03:46:56.490Z,2.95
2023-04-16T03:49:23.624Z,2.96
2023-04-16T03:51:51.009Z,2.95
2023-04-16T03:54:18.418Z,2.95
2023-04-16T03:56:49.558Z,2.97
2023-04-16T03:59:17.137Z,3.00
2023-04-16T04:01:44.263Z,3.03
2023-04-16T04:04:11.494Z,3.06
2023-04-16T04:06:38.521Z,3.10
2023-04-16T04:09:05.671Z,3.10
2023-04-16T04:11:33.105Z,3.11
2023-04-16T04:13:59.981Z,3.14
2023-04-16T04:16:26.929Z,3.19
2023-04-16T04:18:55.062Z,3.23
2023-04-16T04:21:22.591Z,3.27
2023-04-16T04:23:49.542Z,3.31
2023-04-16T04:26:16.612Z,3.35
2023-04-16T04:28:43.684Z,3.37
2023-04-16T04:31:10.665Z,3.39
2023-04-16T04:33:37.534Z,3.42
2023-04-16T04:36:04.583Z,3.47
2023-04-16T04:38:32.721Z,3.51
2023-04-16T04:40:59.734Z,3.55
2023-04-16T04:43:27.303Z,3.61
2023-04-16T04:45:54.386Z,3.69
2023-04-16T04:48:25.676Z,3.75
2023-04-16T04:50:53.340Z,3.80
2023-04-16T04:53:20.251Z,3.87
2023-04-16T04:55:50.896Z,3.93
2023-04-16T04:58:20.114Z,4.02
2023-04-16T05:00:46.965Z,4.13
2023-04-16T05:03:18.821Z,4.24
2023-04-16T05:05:45.721Z,4.35
2023-04-16T05:08:12.727Z,4.47
2023-04-16T05:10:39.669Z,4.60
2023-04-16T05:13:06.754Z,4.74
2023-04-16T05:15:33.906Z,4.86
2023-04-16T05:18:00.977Z,4.98
2023-04-16T05:20:28.010Z,5.12
2023-04-16T05:22:55.132Z,5.25
2023-04-16T05:25:22.251Z,5.41
2023-04-16T05:27:49.128Z,5.60
2023-04-16T05:30:15.921Z,5.79
2023-04-16T05:32:42.986Z,5.97
2023-04-16T05:35:10.536Z,6.13
2023-04-16T05:37:37.452Z,6.28
2023-04-16T05:40:04.758Z,6.46
2023-04-16T05:42:31.815Z,6.62
2023-04-16T05:44:59.006Z,6.79
2023-04-16T05:47:25.954Z,6.97
2023-04-16T05:49:52.873Z,7.17
2023-04-16T05:52:19.798Z,7.36
2023-04-16T05:54:46.698Z,7.55
2023-04-16T05:57:13.763Z,7.73
2023-04-16T05:59:40.937Z,7.86
2023-04-16T06:02:08.070Z,8.04
2023-04-16T06:04:35.582Z,8.19
2023-04-16T06:07:02.632Z,8.37
2023-04-16T06:09:30.030Z,8.54
2023-04-16T06:11:57.553Z,8.70
2023-04-16T06:14:24.561Z,8.83
2023-04-16T06:16:51.508Z,8.96
2023-04-16T06:19:18.412Z,9.11
2023-04-16T06:21:45.565Z,9.25
2023-04-16T06:24:12.753Z,9.40
2023-04-16T06:26:39.641Z,9.59
2023-04-16T06:29:06.466Z,9.77
2023-04-16T06:31:33.300Z,9.92
2023-04-16T06:34:00.179Z,10.06
2023-04-16T06:36:28.460Z,10.25
2023-04-16T06:38:55.351Z,10.43
2023-04-16T06:41:24.921Z,10.56
2023-04-16T06:43:51.847Z,10.71
2023-04-16T06:46:18.668Z,10.84
2023-04-16T06:48:45.727Z,10.98
2023-04-16T06:51:12.958Z,11.15
2023-04-16T06:53:40.024Z,11.28
2023-04-16T06:56:07.266Z,11.42
2023-04-16T06:58:34.230Z,11.58
2023-04-16T07:01:02.247Z,11.76
2023-04-16T07:03:29.371Z,11.89
2023-04-16T07:05:56.445Z,11.98
2023-04-16T07:08:24.152Z,12.09
2023-04-16T07:10:53.233Z,12.21
2023-04-16T07:13:20.347Z,12.32
2023-04-16T07:15:47.582Z,12.43
2023-04-16T07:18:15.311Z,12.54
2023-04-16T07:20:42.176Z,12.67
2023-04-16T07:23:09.149Z,12.80
2023-04-16T07:25:36.205Z,12.89
2023-04-16T07:28:03.426Z,12.96
2023-04-16T07:30:34.275Z,12.96
2023-04-16T07:33:02.787Z,12.97
2023-04-16T07:35:30.350Z,13.06
2023-04-16T07:37:57.505Z,13.15
2023-04-16T07:40:24.770Z,13.23
2023-04-16T07:42:51.971Z,13.28
2023-04-16T07:45:18.974Z,13.37
2023-04-16T07:47:46.092Z,13.46
2023-04-16T07:50:13.338Z,13.54
2023-04-16T07:52:41.836Z,13.67
2023-04-16T07:55:08.934Z,13.79
2023-04-16T07:57:35.984Z,13.86
2023-04-16T08:00:04.480Z,13.92
2023-04-16T08:02:40.782Z,14.01
2023-04-16T08:05:08.048Z,14.13
2023-04-16T08:07:35.314Z,14.25
2023-04-16T08:10:02.121Z,14.37
2023-04-16T08:12:29.298Z,14.53
2023-04-16T08:14:56.296Z,14.69
2023-04-16T08:17:23.268Z,14.82
2023-04-16T08:19:50.306Z,15.02
2023-04-16T08:22:17.667Z,15.26
2023-04-16T08:24:44.620Z,15.48
2023-04-16T08:27:18.316Z,15.59
2023-04-16T08:29:45.890Z,15.80
2023-04-16T08:32:13.139Z,16.02
2023-04-16T08:34:41.219Z,16.28
2023-04-16T08:37:08.485Z,16.45
2023-04-16T08:39:35.688Z,16.68
2023-04-16T08:42:04.697Z,16.95
2023-04-16T08:44:33.422Z,17.15
2023-04-16T08:47:01.736Z,17.25
2023-04-16T08:49:29.058Z,17.42
2023-04-16T08:51:56.629Z,17.59
2023-04-16T08:54:38.723Z,17.70
2023-04-16T08:57:07.206Z,17.87
2023-04-16T08:59:35.486Z,18.06
2023-04-16T09:02:02.795Z,18.10
2023-04-16T09:04:31.454Z,18.10
2023-04-16T09:06:58.897Z,18.31
2023-04-16T09:09:26.229Z,18.55
2023-04-16T09:11:53.617Z,18.76
2023-04-16T09:14:21.705Z,18.82
2023-04-16T09:16:49.193Z,19.10
2023-04-16T09:19:16.424Z,19.54
2023-04-16T09:21:46.439Z,19.76
2023-04-16T09:24:13.390Z,20.14
2023-04-16T09:26:43.762Z,20.77
2023-04-16T09:29:11.036Z,21.40
2023-04-16T09:31:38.273Z,21.57
2023-04-16T09:34:08.698Z,22.05
2023-04-16T09:36:36.338Z,22.25
2023-04-16T09:39:03.818Z,22.32
2023-04-16T09:41:32.705Z,22.28
2023-04-16T09:44:01.374Z,22.06
2023-04-16T09:46:33.442Z,21.98
2023-04-16T09:49:13.179Z,22.25
2023-04-16T09:51:50.382Z,22.31
2023-04-16T09:54:19.265Z,22.19
2023-04-16T09:56:46.632Z,22.24
2023-04-16T09:59:20.038Z,22.48
2023-04-16T10:01:48.916Z,22.49
2023-04-16T10:04:16.692Z,22.46
2023-04-16T10:06:46.506Z,22.21
2023-04-16T10:09:13.564Z,22.18
2023-04-16T10:11:40.922Z,22.39
2023-04-16T10:14:07.868Z,22.72
2023-04-16T10:16:34.942Z,22.59
2023-04-16T10:19:02.014Z,22.84
2023-04-16T10:21:33.107Z,23.27
2023-04-16T10:24:00.290Z,23.32
2023-04-16T10:26:28.976Z,23.29
2023-04-16T10:28:58.068Z,23.00
2023-04-16T10:31:26.482Z,22.80
2023-04-16T10:33:54.421Z,22.45
2023-04-16T10:36:26.094Z,22.28
2023-04-16T10:38:56.281Z,22.28
2023-04-16T10:41:25.001Z,22.27
2023-04-16T10:43:52.356Z,22.29
2023-04-16T10:46:21.080Z,22.42
2023-04-16T10:48:50.588Z,22.71
2023-04-16T10:51:31.937Z,22.67
2023-04-16T10:54:08.201Z,22.53
2023-04-16T10:56:36.007Z,22.67
2023-04-16T10:59:10.576Z,22.87
2023-04-16T11:01:41.268Z,23.21
2023-04-16T11:04:37.634Z,23.38
2023-04-16T11:07:04.852Z,23.39
2023-04-16T11:09:52.884Z,23.35
2023-04-16T11:12:19.720Z,23.46
2023-04-16T11:14:47.642Z,23.66
2023-04-16T11:17:14.914Z,23.84
2023-04-16T11:19:42.069Z,23.44
2023-04-16T11:22:11.481Z,23.46
2023-04-16T11:24:40.391Z,23.21
2023-04-16T11:27:07.840Z,23.18
2023-04-16T11:29:35.000Z,23.08
2023-04-16T11:32:02.272Z,23.00
2023-04-16T11:34:29.472Z,22.88
2023-04-16T11:36:56.715Z,22.71
2023-04-16T11:39:23.927Z,22.68
2023-04-16T11:41:51.996Z,22.70
2023-04-16T11:44:26.013Z,22.92
2023-04-16T11:46:54.044Z,23.20
2023-04-16T11:49:27.671Z,23.38
2023-04-16T11:51:54.976Z,23.47
2023-04-16T11:54:22.705Z,23.44
2023-04-16T11:56:50.557Z,23.33
2023-04-16T11:59:22.394Z,23.57
2023-04-16T12:01:50.843Z,23.83
2023-04-16T12:04:22.260Z,23.42
2023-04-16T12:07:08.016Z,23.20
2023-04-16T12:09:37.138Z,23.14
2023-04-16T12:12:06.515Z,23.27
2023-04-16T12:14:33.501Z,23.32
2023-04-16T12:17:18.964Z,23.22
2023-04-16T12:19:55.031Z,23.12
2023-04-16T12:22:36.735Z,23.21
2023-04-16T12:25:06.306Z,23.26
2023-04-16T12:27:47.162Z,23.05
2023-04-16T12:30:18.022Z,23.08
2023-04-16T12:32:46.322Z,23.08
2023-04-16T12:35:13.511Z,23.00
2023-04-16T12:37:41.163Z,23.18
2023-04-16T12:40:08.321Z,23.55
2023-04-16T12:42:35.591Z,23.83
2023-04-16T12:45:03.780Z,23.75
2023-04-16T12:47:31.363Z,23.50
2023-04-16T12:49:58.509Z,23.23
2023-04-16T12:52:25.849Z,23.24
2023-04-16T12:54:52.897Z,23.25
2023-04-16T12:57:20.052Z,23.11
2023-04-16T12:59:46.927Z,22.90
2023-04-16T13:02:13.962Z,22.87
2023-04-16T13:04:41.431Z,22.84
2023-04-16T13:07:08.465Z,22.84
2023-04-16T13:09:36.191Z,22.67
2023-04-16T13:12:04.144Z,22.67
2023-04-16T13:14:31.074Z,22.69
2023-04-16T13:16:57.913Z,22.70
2023-04-16T13:19:25.070Z,22.86
2023-04-16T13:21:52.749Z,23.02
2023-04-16T13:24:19.590Z,23.09
2023-04-16T13:26:46.539Z,23.01
2023-04-16T13:29:13.485Z,22.98
2023-04-16T13:31:40.704Z,22.91
2023-04-16T13:34:07.589Z,22.84
2023-04-16T13:36:34.881Z,22.89
2023-04-16T13:39:04.172Z,22.84
2023-04-16T13:41:31.342Z,22.92
2023-04-16T13:43:58.249Z,22.99
2023-04-16T13:46:26.165Z,23.07
2023-04-16T13:48:53.380Z,23.10
2023-04-16T13:51:20.313Z,23.14
2023-04-16T13:53:47.283Z,23.20
2023-04-16T13:56:14.340Z,23.15
2023-04-16T13:58:41.494Z,23.10
2023-04-16T14:01:09.380Z,23.08
2023-04-16T14:03:37.988Z,22.98
2023-04-16T14:06:05.082Z,22.88
2023-04-16T14:08:32.163Z,22.90
2023-04-16T14:10:59.135Z,23.01
2023-04-16T14:13:26.267Z,23.11
2023-04-16T14:15:53.848Z,23.09
2023-04-16T14:18:21.194Z,22.97
2023-04-16T14:20:48.113Z,22.85
2023-04-16T14:23:14.932Z,22.71
2023-04-16T14:25:41.853Z,22.61
2023-04-16T14:28:09.004Z,22.53
2023-04-16T14:30:36.018Z,22.39
2023-04-16T14:33:04.551Z,22.29
2023-04-16T14:35:32.474Z,22.24
2023-04-16T14:37:59.456Z,22.21
2023-04-16T14:40:26.512Z,22.19
2023-04-16T14:42:53.728Z,22.21
2023-04-16T14:45:20.681Z,22.18
2023-04-16T14:47:47.797Z,22.13
2023-04-16T14:50:15.264Z,22.06
2023-04-16T14:52:42.149Z,21.88
2023-04-16T14:55:09.032Z,21.68
2023-04-16T14:57:36.009Z,21.53
2023-04-16T15:00:07.394Z,21.37
2023-04-16T15:02:34.970Z,21.21
2023-04-16T15:05:02.165Z,21.09
2023-04-16T15:07:29.458Z,20.96
2023-04-16T15:09:56.381Z,20.82
2023-04-16T15:12:23.434Z,20.71
2023-04-16T15:14:50.416Z,20.58
2023-04-16T15:17:17.332Z,20.48
2023-04-16T15:19:44.177Z,20.39
2023-04-16T15:22:12.149Z,20.32
2023-04-16T15:24:39.160Z,20.21
2023-04-16T15:27:06.433Z,20.12
2023-04-16T15:29:33.720Z,20.04
2023-04-16T15:32:00.572Z,19.97
2023-04-16T15:34:27.728Z,19.87
2023-04-16T15:36:54.574Z,19.78
2023-04-16T15:39:21.763Z,19.69
2023-04-16T15:42:00.615Z,19.61
2023-04-16T15:44:29.513Z,19.52
2023-04-16T15:46:56.583Z,19.44
2023-04-16T15:49:24.238Z,19.35
2023-04-16T15:51:51.560Z,19.25
2023-04-16T15:54:18.811Z,19.12
2023-04-16T15:56:46.153Z,19.02
2023-04-16T15:59:13.153Z,18.92
2023-04-16T16:01:40.306Z,18.82
2023-04-16T16:04:07.645Z,18.72
2023-04-16T16:06:35.271Z,18.63
2023-04-16T16:09:02.162Z,18.54
2023-04-16T16:11:29.288Z,18.40
2023-04-16T16:13:56.460Z,18.23
2023-04-16T16:16:23.416Z,18.08
2023-04-16T16:18:50.314Z,17.86
2023-04-16T16:21:17.154Z,17.70
2023-04-16T16:23:43.973Z,17.55
2023-04-16T16:26:10.839Z,17.47
2023-04-16T16:28:37.937Z,17.42
2023-04-16T16:31:05.635Z,17.38
2023-04-16T16:33:32.672Z,17.34
2023-04-16T16:35:59.716Z,17.29
2023-04-16T16:38:26.765Z,17.23
2023-04-16T16:40:53.788Z,17.20
2023-04-16T16:43:21.009Z,17.15
2023-04-16T16:45:48.416Z,17.11
2023-04-16T16:48:15.298Z,17.07
2023-04-16T16:50:42.074Z,17.02
2023-04-16T16:53:09.196Z,16.97
2023-04-16T16:55:36.188Z,16.89
2023-04-16T16:58:03.048Z,16.79
2023-04-16T17:00:30.075Z,16.70
2023-04-16T17:02:57.197Z,16.60
2023-04-16T17:05:24.519Z,16.49
2023-04-16T17:07:51.518Z,16.36
2023-04-16T17:10:21.167Z,16.24
2023-04-16T17:12:48.486Z,16.12
2023-04-16T17:15:15.941Z,16.01
2023-04-16T17:17:43.113Z,15.87
2023-04-16T17:20:11.751Z,15.74
2023-04-16T17:22:39.315Z,15.61
2023-04-16T17:25:07.583Z,15.49
2023-04-16T17:27:34.540Z,15.38
2023-04-16T17:30:01.829Z,15.25
2023-04-16T17:32:29.710Z,15.14
2023-04-16T17:34:56.976Z,15.05
2023-04-16T17:37:24.068Z,14.98
2023-04-16T17:39:51.100Z,14.87
2023-04-16T17:42:18.151Z,14.76
2023-04-16T17:44:45.295Z,14.69
2023-04-16T17:47:12.341Z,14.62
2023-04-16T17:49:39.392Z,14.55
2023-04-16T17:52:06.867Z,14.50
2023-04-16T17:54:33.670Z,14.44
2023-04-16T17:57:01.288Z,14.37
2023-04-16T17:59:28.439Z,14.32
2023-04-16T18:01:56.238Z,14.29
2023-04-16T18:04:23.581Z,14.28
2023-04-16T18:06:50.909Z,14.25
2023-04-16T18:09:18.963Z,14.24
2023-04-16T18:11:46.050Z,14.20
2023-04-16T18:14:16.162Z,14.16
2023-04-16T18:16:43.137Z,14.12
2023-04-16T18:19:12.356Z,14.07
2023-04-16T18:21:39.373Z,14.05
2023-04-16T18:24:06.615Z,14.01
2023-04-16T18:26:35.770Z,13.96
2023-04-16T18:29:03.987Z,13.93
2023-04-16T18:31:31.260Z,13.89
2023-04-16T18:33:58.674Z,13.85
2023-04-16T18:36:26.147Z,13.82
2023-04-16T18:41:26.654Z,13.85
2023-04-16T18:43:54.004Z,13.87
2023-04-16T18:46:21.092Z,13.90
2023-04-16T18:48:48.023Z,13.94
2023-04-16T18:51:16.248Z,14.01
2023-04-16T18:53:46.305Z,14.04
2023-04-16T18:56:13.462Z,14.07
2023-04-16T18:58:40.535Z,14.08
2023-04-16T19:01:10.537Z,14.09
2023-04-16T19:03:38.685Z,14.09
2023-04-16T19:06:06.099Z,14.08
2023-04-16T19:08:33.137Z,14.06
2023-04-16T19:11:00.395Z,14.05
2023-04-16T19:13:27.423Z,14.02
2023-04-16T19:16:00.860Z,13.99
2023-04-16T19:18:27.720Z,13.96
2023-04-16T19:20:58.837Z,13.92
2023-04-16T19:23:26.215Z,13.89
2023-04-16T19:25:55.187Z,13.86
2023-04-16T19:28:23.018Z,13.83
2023-04-16T19:30:53.290Z,13.79
2023-04-16T19:33:20.212Z,13.74
2023-04-16T19:35:47.236Z,13.71
2023-04-16T19:38:14.481Z,13.67
2023-04-16T19:40:46.059Z,13.62
2023-04-16T19:43:13.019Z,13.57
2023-04-16T19:45:46.825Z,13.54
2023-04-16T19:48:13.921Z,13.50
2023-04-16T19:50:41.716Z,13.47
2023-04-16T19:53:09.031Z,13.42
2023-04-16T19:55:36.030Z,13.39
2023-04-16T19:58:06.026Z,13.38
2023-04-16T20:00:34.302Z,13.36
2023-04-16T20:03:01.294Z,13.35
2023-04-16T20:05:28.933Z,13.33
2023-04-16T20:07:56.294Z,13.32
2023-04-16T20:10:23.665Z,13.32
2023-04-16T20:12:50.776Z,13.32
2023-04-16T20:15:18.255Z,13.32
2023-04-16T20:17:45.563Z,13.33
2023-04-16T20:20:15.127Z,13.34
2023-04-16T20:22:42.762Z,13.34
2023-04-16T20:25:09.758Z,13.33
2023-04-16T20:27:36.658Z,13.34
2023-04-16T20:30:05.590Z,13.33
2023-04-16T20:32:32.949Z,13.32
2023-04-16T20:35:01.417Z,13.32
2023-04-16T20:37:28.640Z,13.32
2023-04-16T20:39:55.660Z,13.32
2023-04-16T20:42:23.011Z,13.32
2023-04-16T20:44:55.689Z,13.32
2023-04-16T20:47:22.850Z,13.32
2023-04-16T20:49:50.034Z,13.30
2023-04-16T20:52:17.057Z,13.29
2023-04-16T20:54:44.001Z,13.28
2023-04-16T20:57:11.061Z,13.29
2023-04-16T20:59:38.207Z,13.29
2023-04-16T21:02:05.691Z,13.29
2023-04-16T21:04:33.001Z,13.28
2023-04-16T21:07:02.693Z,13.27
2023-04-16T21:09:30.534Z,13.26
2023-04-16T21:11:57.390Z,13.24
2023-04-16T21:14:24.376Z,13.22
2023-04-16T21:16:51.237Z,13.20
2023-04-16T21:19:18.317Z,13.17
2023-04-16T21:21:45.485Z,13.14
2023-04-16T21:24:12.571Z,13.12
2023-04-16T21:26:39.493Z,13.10
2023-04-16T21:29:06.434Z,13.07
2023-04-16T21:31:33.640Z,13.05
2023-04-16T21:34:00.848Z,13.03
2023-04-16T21:36:28.823Z,13.01
2023-04-16T21:38:55.882Z,12.99
2023-04-16T21:41:22.928Z,12.97
2023-04-16T21:43:49.981Z,12.94
2023-04-16T21:46:17.039Z,12.89
2023-04-16T21:48:44.419Z,12.84
2023-04-16T21:51:11.343Z,12.80
2023-04-16T21:53:38.499Z,12.75
2023-04-16T21:56:05.965Z,12.69
2023-04-16T21:58:32.882Z,12.64
2023-04-16T22:00:59.920Z,12.60
2023-04-16T22:03:27.511Z,12.54
2023-04-16T22:06:00.132Z,12.49
2023-04-16T22:08:30.667Z,12.45
2023-04-16T22:10:58.764Z,12.41
2023-04-16T22:13:25.970Z,12.36
2023-04-16T22:15:53.189Z,12.30
2023-04-16T22:18:20.254Z,12.24
2023-04-16T22:20:50.398Z,12.18
2023-04-16T22:23:17.324Z,12.16
2023-04-16T22:25:44.322Z,12.13
2023-04-16T22:28:11.602Z,12.09
2023-04-16T22:30:38.537Z,12.07
2023-04-16T22:33:05.590Z,12.07
2023-04-16T22:35:32.779Z,12.04
2023-04-16T22:37:59.744Z,12.01
2023-04-16T22:40:26.741Z,12.00
2023-04-16T22:42:53.574Z,12.00
2023-04-16T22:45:20.405Z,11.99
2023-04-16T22:47:47.549Z,11.97
2023-04-16T22:50:14.839Z,11.95
2023-04-16T22:52:41.994Z,11.94
2023-04-16T22:55:09.151Z,11.94
2023-04-16T22:57:36.118Z,11.94
2023-04-16T23:00:05.874Z,11.94
2023-04-16T23:02:32.907Z,11.91
2023-04-16T23:05:00.230Z,11.90
2023-04-16T23:07:27.093Z,11.87
2023-04-16T23:09:54.018Z,11.84
2023-04-16T23:12:20.982Z,11.83
2023-04-16T23:14:48.751Z,11.82
2023-04-16T23:17:15.585Z,11.82
2023-04-16T23:19:42.424Z,11.80
2023-04-16T23:22:09.600Z,11.77
2023-04-16T23:24:36.522Z,11.74
2023-04-16T23:27:03.521Z,11.73
2023-04-16T23:29:31.275Z,11.71
2023-04-16T23:31:58.228Z,11.70
2023-04-16T23:34:25.462Z,11.69
2023-04-16T23:36:52.279Z,11.68
2023-04-16T23:39:19.158Z,11.65
2023-04-16T23:41:45.992Z,11.63
2023-04-16T23:44:12.920Z,11.62
2023-04-16T23:46:40.491Z,11.61
2023-04-16T23:49:07.499Z,11.60
2023-04-16T23:51:34.439Z,11.59
2023-04-16T23:54:01.385Z,11.59
2023-04-16T23:56:28.306Z,11.59
2023-04-16T23:58:55.632Z,11.59
